Flight Track Log - Related Links

Times and Time Zones

All times are in EDT time to prevent confusion due to time zone crossing. See the N770NC flight status page for this flight to view local times or setup timezone preferences in your user account.

Time Position Orientation Groundspeed Altitude Reporting Facility
EDT Latitude Longitude Course Direction KTS MPH feet Rate Location/Type
Mon 08:22:51 PM 36.1500 -86.7000 327° Northwest 176 203 1,400  Level Nashville TRACON
Mon 08:23:51 PM 36.2000 -86.7167 345° North 226 260 2,900 1,805 Climbing Nashville TRACON
Mon 08:24:44 PM 36.2517 -86.7358 343° North 239 275 4,800 2,071 Climbing Memphis Center
Mon 08:25:44 PM 36.3247 -86.7456 354° North 273 314 6,800 2,200 Climbing Memphis Center
Mon 08:26:00 PM 36.5441 -86.7394 350° North  Level FlightAware Approximate
Mon 08:26:44 PM 36.3981 -86.7578 352° North 273 314 9,200  Level Memphis Center
Mon 08:27:00 PM 36.6505 -86.7631 350° North  Level FlightAware Approximate
Mon 08:27:44 PM 36.4758 -86.7775 348° North 273 314 10,400  Level Memphis Center
Mon 08:28:00 PM 36.7492 -86.8060 327° Northwest  Level FlightAware Approximate
Mon 08:28:44 PM 36.5639 -86.7994 349° North 306 352 11,100  Level Memphis Center
Mon 08:29:44 PM 36.6589 -86.8342 344° North 347 399 12,800 1,450 Climbing Memphis Center
Mon 08:30:44 PM 36.7469 -86.8586 347° North 355 409 14,000 1,350 Climbing Memphis Center
Mon 08:31:44 PM 36.8478 -86.8803 350° North 364 419 15,500 1,350 Climbing Memphis Center
Mon 08:32:44 PM 36.9444 -86.9175 343° North 364 419 16,700 1,300 Climbing Memphis Center
Mon 08:33:44 PM 37.0475 -86.9494 346° North 364 419 18,100 1,450 Climbing Memphis Center
Mon 08:34:44 PM 37.1483 -86.9789 347° North 364 419 19,600 1,500 Climbing Memphis Center
Mon 08:35:44 PM 37.2472 -87.0164 343° North 364 419 21,100 1,237 Climbing Memphis Center
Mon 08:37:00 PM 37.3581 -86.9409 332° Northwest  Level Estimated
Mon 08:40:43 PM 37.7456 -87.0508 33° Northeast 381 438 27,000  Level Indianapolis Center
Mon 08:41:44 PM 37.8503 -87.0192 13° North 386 444 27,600 585 Climbing Indianapolis Center
Mon 08:42:46 PM 37.9581 -86.9844 14° North 395 455 28,200 537 Climbing Indianapolis Center
Mon 08:43:47 PM 38.0656 -86.9400 18° North 404 465 28,700 390 Climbing Indianapolis Center
Mon 08:44:00 PM 37.9777 -87.0364 16° North  Level FlightAware Approximate
Mon 08:44:49 PM 38.1756 -86.9083 13° North 406 467 29,000  Level Indianapolis Center
Mon 08:45:00 PM 38.0734 -87.0017 16° North  Level FlightAware Approximate
Mon 08:45:51 PM 38.2886 -86.8786 12° North 419 482 29,000  Level Indianapolis Center
Mon 08:46:00 PM 38.1573 -86.9329 33° Northeast  Level Estimated
Mon 08:46:52 PM 38.4228 -86.8233 18° North 428 493 29,000  Level Indianapolis Center
Mon 08:47:54 PM 38.5369 -86.7839 15° North 428 493 29,000  Level Indianapolis Center
Mon 08:48:55 PM 38.6525 -86.7575 10° North 422 486 29,000  Level Indianapolis Center
Mon 08:49:57 PM 38.7683 -86.7272 12° North 424 488 29,000  Level Indianapolis Center
Mon 08:50:58 PM 38.8842 -86.6869 15° North 429 494 29,000  Level Indianapolis Center
Mon 08:52:00 PM 38.9992 -86.6539 13° North 424 488 29,000  Level Indianapolis Center
Mon 08:53:01 PM 39.1108 -86.5869 25° Northeast 434 499 29,000  Level Indianapolis Center
Mon 08:54:03 PM 39.2144 -86.5053 31° Northeast 437 503 29,000  Level Indianapolis Center
Mon 08:55:04 PM 39.3214 -86.4350 27° Northeast 435 501 29,000  Level Indianapolis Center
Mon 08:56:06 PM 39.4514 -86.3572 25° Northeast 431 496 29,000  Level Indianapolis Center
Mon 08:57:07 PM 39.5528 -86.2719 33° Northeast 439 505 29,000  Level Indianapolis Center
Mon 08:58:09 PM 39.6531 -86.1908 32° Northeast 436 502 29,000  Level Indianapolis Center
Mon 08:59:10 PM 39.7589 -86.1244 26° Northeast 435 501 29,000  Level Indianapolis Center
Mon 09:00:12 PM 39.8617 -86.0483 30° Northeast 431 496 29,000  Level Indianapolis Center
Mon 09:01:13 PM 39.9825 -85.9475 33° Northeast 434 499 29,000  Level Indianapolis Center
Mon 09:02:14 PM 40.0889 -85.8764 27° Northeast 431 496 29,000  Level Indianapolis Center
Mon 09:02:37 PM 40.1322 -85.8475 27° Northeast 432 497 29,000  Level Chicago Center
Mon 09:03:39 PM 40.2372 -85.7731 28° Northeast 431 496 29,000  Level Chicago Center
Mon 09:04:41 PM 40.3383 -85.6861 33° Northeast 438 504 29,000  Level Chicago Center
Mon 09:05:18 PM 40.3994 -85.6389 30° Northeast 433 498 29,000 -290 Level Indianapolis Center
Mon 09:05:43 PM 40.4417 -85.6103 27° Northeast 430 495 28,700 -1,241 Descending Chicago Center
Mon 09:06:45 PM 40.5489 -85.5350 28° Northeast 436 502 27,200 -1,742 Descending Chicago Center
Mon 09:07:47 PM 40.6714 -85.4308 33° Northeast 439 505 25,100 -1,694 Descending Chicago Center
Mon 09:08:49 PM 40.7594 -85.3678 28° Northeast 429 494 23,700 -1,645 Descending Chicago Center
Mon 09:09:51 PM 40.8694 -85.2869 29° Northeast 381 438 21,700 -1,355 Descending Chicago Center
Mon 09:10:53 PM 40.9531 -85.2122 34° Northeast 366 421 20,900 -339 Descending Chicago Center
Mon 09:11:55 PM 41.0342 -85.1219 40° Northeast 377 434 21,000 49 Climbing Chicago Center
Mon 09:12:56 PM 41.1261 -85.0333 36° Northeast 404 465 21,000  Level Chicago Center
Mon 09:13:58 PM 41.2189 -84.9372 38° Northeast 421 484 21,000  Level Chicago Center
Mon 09:15:00 PM 41.3308 -84.8311 35° Northeast 415 478 21,000 -194 Level Chicago Center
Mon 09:16:02 PM 41.4164 -84.7383 39° Northeast 405 466 20,600 -1,452 Descending Chicago Center
Mon 09:17:04 PM 41.5003 -84.6578 36° Northeast 379 436 18,000 -2,516 Descending Chicago Center
Mon 09:18:06 PM 41.5764 -84.5617 43° Northeast 379 436 15,400 -1,887 Descending Chicago Center
Mon 09:19:08 PM 41.6456 -84.4578 48° Northeast 386 444 14,100 -1,210 Descending Chicago Center
Mon 09:20:10 PM 41.6975 -84.3353 60° Northeast 382 440 12,900 -1,024 Descending Chicago Center
Mon 09:21:11 PM 41.7647 -84.1964 57° Northeast 375 432 12,000 -491 Descending Chicago Center
Mon 09:22:00 PM 41.8039 -84.0961 62° Northeast 368 423 12,000  Level Cleveland Center
Mon 09:22:19 PM 41.8133 -84.0575 72° East 367 422 12,000 98 Level Cleveland Center
Mon 09:23:01 PM 41.8617 -83.9764 51° Northeast 391 450 12,100  Climbing Cleveland Center
Mon 09:23:19 PM 41.8794 -83.9467 51° Northeast 367 422 12,000 -98 Descending Cleveland Center
Mon 09:24:02 PM 41.9436 -83.8831 36° Northeast 394 453 12,000  Level Cleveland Center
Mon 09:24:19 PM 41.9653 -83.8564 42° Northeast 377 434 12,000  Level Cleveland Center
Mon 09:24:57 PM 42.0189 -83.8058 35° Northeast 363 418 12,000  Level Cleveland Center
Mon 09:25:19 PM 42.0447 -83.7736 43° Northeast 365 420 12,000 98 Level Cleveland Center
Mon 09:25:58 PM 42.0917 -83.7369 30° Northeast 281 323 12,100 100 Climbing Cleveland Center
Mon 09:26:19 PM 42.1111 -83.7125 43° Northeast 331 381 12,100  Level Cleveland Center
Mon 09:26:58 PM 42.1436 -83.6667 46° Northeast 263 303 12,100  Level Cleveland Center
Mon 09:27:19 PM 42.1569 -83.6392 57° Northeast 282 325 12,100  Level Cleveland Center
Mon 09:28:11 PM 42.1983 -83.5739 49° Northeast 264 304 12,100 -956 Level Cleveland Center
Mon 09:29:12 PM 42.2578 -83.5233 32° Northeast 252 290 10,300 -1,689 Descending Cleveland Center
Mon 09:29:54 PM 42.3022 -83.5003 21° North 217 250 9,200 -1,791 Descending Cleveland Center
Mon 09:30:19 PM 42.3233 -83.4872 25° Northeast 229 264 8,300 -2,066 Descending Cleveland Center
Mon 09:30:55 PM 42.3572 -83.4661 25° Northeast 225 259 7,100 -1,608 Descending Cleveland Center
Mon 09:31:56 PM 42.4103 -83.4292 27° Northeast 211 243 5,700 -1,082 Descending Cleveland Center
Mon 09:32:57 PM 42.4389 -83.3686 57° Northeast 236 272 4,900 -744 Descending Cleveland Center
Mon 09:33:57 PM 42.4161 -83.2775 109° East 233 268 4,200 -700 Descending Cleveland Center

Login

Don't have an account? Register now (free) for customized features, flight alerts, and more!